Gava, Spain
Current Conditions -  °F | °C
As of 5:30 PM on Thursday 30 Oct 2014 (Local Time) from LEBL Reporting Station
Few Clouds Few Clouds  
Wind Chill: 68°   Ceiling: Unl
Heat Index: 68°   Visibility: 5mi
Dew Point: 63°   Wind: 2mph
Humidity: 83%   Direction: 130°SE
Pressure: 30.18"   Gusts: NA
Location:  41.31°N, 2°E
Report Text: LEBL 301630Z 13002KT 8000 FEW016 20/17 Q1022 NOSIG
Loading
Personal Weather Stations






























Interactive Weather Map
Tropical Storm Tracking
New forecast layout! Learn more

10-Day Weather Forecast

Advertisements
Track Severe Weather on mobile